createdAt,value
2017-10-23T00:01:40.055Z,17.13
2017-10-23T00:04:07.723Z,19.77
2017-10-23T00:06:35.344Z,20.33
2017-10-23T00:09:03.156Z,17.10
2017-10-23T00:11:31.656Z,18.27
2017-10-23T00:13:59.269Z,18.33
2017-10-23T00:16:26.929Z,18.97
2017-10-23T00:18:54.605Z,16.00
2017-10-23T00:21:22.212Z,32.27
2017-10-23T00:23:49.936Z,20.00
2017-10-23T00:26:17.612Z,16.93
2017-10-23T00:28:45.216Z,17.63
2017-10-23T00:31:12.868Z,13.53
2017-10-23T00:33:40.479Z,16.10
2017-10-23T00:36:08.095Z,14.47
2017-10-23T00:38:35.747Z,16.43
2017-10-23T00:41:03.360Z,15.97
2017-10-23T00:43:30.960Z,14.93
2017-10-23T00:45:58.628Z,17.00
2017-10-23T00:48:26.243Z,20.03
2017-10-23T00:50:53.859Z,16.17
2017-10-23T00:53:21.521Z,17.37
2017-10-23T00:55:49.200Z,16.70
2017-10-23T00:58:16.936Z,18.23
2017-10-23T01:00:44.739Z,22.33
2017-10-23T01:03:12.343Z,15.83
2017-10-23T01:05:39.961Z,14.20
2017-10-23T01:08:07.623Z,17.93
2017-10-23T01:10:35.219Z,22.40
2017-10-23T01:13:02.888Z,16.10
2017-10-23T01:15:30.623Z,27.90
2017-10-23T01:17:58.240Z,22.10
2017-10-23T01:20:25.936Z,15.67
2017-10-23T01:22:53.592Z,15.33
2017-10-23T01:25:21.260Z,19.67
2017-10-23T01:27:48.912Z,25.33
2017-10-23T01:30:16.588Z,21.10
2017-10-23T01:32:44.196Z,17.53
2017-10-23T01:35:11.816Z,18.20
2017-10-23T01:37:39.540Z,17.90
2017-10-23T01:40:07.153Z,25.10
2017-10-23T01:42:34.764Z,19.70
2017-10-23T01:45:02.502Z,17.97
2017-10-23T01:47:30.115Z,17.57
2017-10-23T01:49:57.723Z,19.33
2017-10-23T01:52:25.433Z,15.37
2017-10-23T01:54:53.043Z,20.93
2017-10-23T01:57:20.703Z,14.30
2017-10-23T01:59:48.428Z,17.87
2017-10-23T02:02:16.173Z,19.50
2017-10-23T02:04:43.794Z,13.67
2017-10-23T02:07:11.439Z,16.50
2017-10-23T02:09:39.060Z,18.73
2017-10-23T02:12:06.725Z,20.30
2017-10-23T02:14:34.440Z,15.40
2017-10-23T02:17:02.059Z,30.50
2017-10-23T02:19:29.675Z,26.80
2017-10-23T02:21:57.339Z,24.13
2017-10-23T02:24:25.008Z,17.70
2017-10-23T02:26:52.615Z,15.53
2017-10-23T02:29:20.260Z,14.73
2017-10-23T02:31:47.931Z,17.20
2017-10-23T02:34:15.548Z,16.40
2017-10-23T02:36:43.192Z,16.40
2017-10-23T02:39:10.860Z,16.33
2017-10-23T02:41:38.528Z,18.60
2017-10-23T02:44:06.180Z,16.00
2017-10-23T02:46:33.784Z,19.67
2017-10-23T02:49:01.399Z,14.23
2017-10-23T02:51:29.040Z,16.40
2017-10-23T02:53:56.639Z,15.63
2017-10-23T02:56:24.236Z,14.60
2017-10-23T02:58:51.981Z,18.67
2017-10-23T03:01:19.647Z,14.87
2017-10-23T03:03:47.263Z,14.20
2017-10-23T03:06:14.907Z,12.93
2017-10-23T03:08:42.520Z,17.97
2017-10-23T03:11:10.172Z,15.70
2017-10-23T03:13:37.852Z,16.67
2017-10-23T03:16:05.518Z,14.47
2017-10-23T03:18:33.189Z,14.03
2017-10-23T03:21:00.863Z,18.93
2017-10-23T03:23:28.487Z,21.00
2017-10-23T03:25:56.110Z,24.73
2017-10-23T03:28:23.868Z,16.00
2017-10-23T03:30:51.497Z,20.23
2017-10-23T03:33:19.110Z,25.00
2017-10-23T03:35:46.844Z,20.80
2017-10-23T03:38:14.460Z,18.73
2017-10-23T03:40:42.076Z,26.13
2017-10-23T03:43:09.743Z,23.20
2017-10-23T03:45:37.403Z,16.57
2017-10-23T03:48:05.007Z,18.53
2017-10-23T03:50:32.688Z,20.73
2017-10-23T03:53:00.363Z,23.23
2017-10-23T03:55:27.977Z,16.67
2017-10-23T03:57:55.655Z,21.17
2017-10-23T04:00:23.447Z,27.23
2017-10-23T04:02:51.055Z,53.90
2017-10-23T04:05:18.836Z,51.43
2017-10-23T04:07:46.447Z,37.03
2017-10-23T04:10:14.056Z,22.37
2017-10-23T04:12:41.727Z,18.90
2017-10-23T04:15:09.500Z,18.87
2017-10-23T04:17:37.122Z,15.33
2017-10-23T04:20:04.884Z,18.20
2017-10-23T04:22:32.562Z,18.23
2017-10-23T04:25:00.239Z,19.03
2017-10-23T04:27:27.911Z,30.50
2017-10-23T04:29:55.584Z,17.67
2017-10-23T04:32:23.212Z,23.00
2017-10-23T04:34:50.879Z,22.27
2017-10-23T04:37:18.592Z,20.30
2017-10-23T04:39:46.276Z,19.07
2017-10-23T04:42:13.999Z,28.03
2017-10-23T04:44:41.629Z,19.30
2017-10-23T04:47:09.263Z,21.57
2017-10-23T04:49:36.922Z,23.40
2017-10-23T04:52:04.551Z,23.37
2017-10-23T04:54:32.230Z,17.33
2017-10-23T04:56:59.979Z,15.40
2017-10-23T04:59:27.615Z,26.00
2017-10-23T05:01:55.279Z,24.67
2017-10-23T05:04:22.956Z,18.83
2017-10-23T05:06:50.637Z,20.03
2017-10-23T05:09:18.242Z,24.37
2017-10-23T05:11:45.965Z,17.30
2017-10-23T05:14:13.651Z,23.13
2017-10-23T05:16:41.261Z,31.43
2017-10-23T05:19:08.928Z,20.10
2017-10-23T05:21:36.616Z,22.57
2017-10-23T05:24:04.302Z,34.27
2017-10-23T05:26:31.967Z,39.60
2017-10-23T05:28:59.579Z,59.23
2017-10-23T05:31:27.217Z,48.10
2017-10-23T05:33:54.903Z,50.23
2017-10-23T05:36:22.527Z,42.27
2017-10-23T05:38:50.174Z,26.73
2017-10-23T05:41:17.855Z,29.53
2017-10-23T05:43:45.556Z,26.60
2017-10-23T05:46:13.210Z,44.87
2017-10-23T05:48:40.872Z,18.90
2017-10-23T05:51:08.489Z,15.37
2017-10-23T05:53:36.108Z,25.90
2017-10-23T05:56:03.801Z,23.90
2017-10-23T05:58:31.498Z,22.30
2017-10-23T06:00:59.224Z,18.67
2017-10-23T06:03:26.896Z,20.40
2017-10-23T06:05:54.519Z,22.07
2017-10-23T06:08:22.200Z,24.80
2017-10-23T06:10:49.867Z,26.53
2017-10-23T06:13:17.596Z,22.67
2017-10-23T06:15:45.275Z,28.87
2017-10-23T06:18:12.941Z,28.70
2017-10-23T06:20:40.796Z,38.58
2017-10-23T06:23:08.452Z,36.53
2017-10-23T06:25:36.131Z,41.20
2017-10-23T06:28:03.755Z,22.47
2017-10-23T06:30:31.424Z,22.23
2017-10-23T06:32:59.187Z,23.77
2017-10-23T06:35:26.825Z,22.50
2017-10-23T06:37:54.451Z,21.80
2017-10-23T06:40:22.219Z,15.33
2017-10-23T06:42:49.904Z,15.33
2017-10-23T06:45:17.521Z,13.27
2017-10-23T06:47:45.191Z,12.60
2017-10-23T06:50:12.850Z,15.53
2017-10-23T06:52:40.463Z,14.07
2017-10-23T06:55:08.139Z,17.80
2017-10-23T06:57:35.860Z,23.00
2017-10-23T07:00:03.495Z,12.57
2017-10-23T07:02:31.267Z,18.33
2017-10-23T07:04:58.943Z,20.57
2017-10-23T07:07:26.611Z,14.47
2017-10-23T07:09:54.351Z,19.13
2017-10-23T07:12:22.015Z,28.10
2017-10-23T07:14:49.702Z,14.00
2017-10-23T07:17:17.391Z,11.40
2017-10-23T07:19:45.065Z,15.60
2017-10-23T07:22:12.667Z,12.93
2017-10-23T07:24:40.471Z,11.53
2017-10-23T07:27:08.140Z,24.50
2017-10-23T07:29:35.744Z,12.00
2017-10-23T07:32:03.396Z,15.00
2017-10-23T07:34:31.083Z,13.60
2017-10-23T07:36:58.751Z,15.70
2017-10-23T07:39:26.404Z,9.93
2017-10-23T07:41:54.031Z,16.30
2017-10-23T07:44:21.691Z,13.60
2017-10-23T07:46:49.366Z,14.90
2017-10-23T07:49:16.975Z,11.40
2017-10-23T07:51:44.574Z,12.67
2017-10-23T07:54:12.283Z,15.73
2017-10-23T07:56:39.948Z,16.17
2017-10-23T07:59:07.616Z,11.30
2017-10-23T08:01:35.296Z,20.40
2017-10-23T08:04:02.921Z,13.90
2017-10-23T08:06:30.531Z,17.10
2017-10-23T08:08:58.189Z,17.23
2017-10-23T08:11:25.863Z,12.13
2017-10-23T08:13:53.520Z,16.73
2017-10-23T08:16:21.194Z,17.27
2017-10-23T08:18:48.865Z,15.73
2017-10-23T08:21:16.533Z,13.73
2017-10-23T08:23:44.335Z,17.67
2017-10-23T08:26:11.936Z,14.57
2017-10-23T08:28:39.535Z,20.40
2017-10-23T08:31:07.240Z,10.77
2017-10-23T08:33:34.904Z,18.90
2017-10-23T08:36:02.517Z,18.80
2017-10-23T08:38:30.181Z,20.50
2017-10-23T08:40:57.835Z,20.40
2017-10-23T08:43:25.495Z,15.07
2017-10-23T08:45:53.208Z,12.97
2017-10-23T08:48:20.811Z,11.77
2017-10-23T08:50:48.414Z,19.77
2017-10-23T08:53:16.148Z,17.73
2017-10-23T08:55:43.760Z,19.47
2017-10-23T08:58:11.376Z,11.60
2017-10-23T09:00:39.128Z,15.17
2017-10-23T09:03:06.732Z,14.60
2017-10-23T09:05:34.356Z,26.27
2017-10-23T09:08:02.083Z,16.77
2017-10-23T09:10:29.768Z,16.73
2017-10-23T09:12:57.384Z,11.47
2017-10-23T09:15:25.197Z,11.30
2017-10-23T09:17:52.809Z,23.63
2017-10-23T09:20:20.477Z,17.23
2017-10-23T09:22:48.128Z,22.03
2017-10-23T09:25:15.742Z,15.43
2017-10-23T09:27:43.406Z,18.30
2017-10-23T09:30:11.127Z,21.60
2017-10-23T09:32:38.795Z,23.67
2017-10-23T09:35:06.463Z,14.90
2017-10-23T09:37:34.127Z,14.87
2017-10-23T09:40:01.797Z,28.37
2017-10-23T09:42:29.399Z,12.60
2017-10-23T09:44:57.067Z,16.00
2017-10-23T09:47:24.670Z,10.20
2017-10-23T09:49:52.275Z,17.97
2017-10-23T09:52:20.003Z,13.80
2017-10-23T09:54:47.676Z,24.33
2017-10-23T09:57:15.268Z,19.40
2017-10-23T09:59:42.924Z,15.70
2017-10-23T10:02:10.542Z,17.20
2017-10-23T10:04:38.143Z,18.23
2017-10-23T10:07:05.793Z,16.27
2017-10-23T10:09:33.401Z,16.47
2017-10-23T10:12:01.068Z,16.23
2017-10-23T10:14:28.719Z,22.37
2017-10-23T10:16:56.384Z,23.37
2017-10-23T10:19:23.996Z,23.83
2017-10-23T10:21:51.722Z,19.60
2017-10-23T10:24:19.409Z,17.33
2017-10-23T10:26:47.015Z,21.17
2017-10-23T10:29:14.722Z,19.77
2017-10-23T10:31:42.385Z,20.83
2017-10-23T10:34:09.988Z,18.10
2017-10-23T10:36:37.652Z,30.07
2017-10-23T10:39:05.272Z,23.23
2017-10-23T10:41:32.882Z,23.83
2017-10-23T10:44:00.527Z,24.07
2017-10-23T10:46:28.208Z,17.10
2017-10-23T10:48:55.820Z,22.13
2017-10-23T10:51:23.476Z,23.73
2017-10-23T10:53:51.082Z,21.90
2017-10-23T10:56:18.695Z,19.07
2017-10-23T10:58:46.355Z,18.83
2017-10-23T11:01:14.023Z,19.57
2017-10-23T11:03:41.684Z,22.63
2017-10-23T11:06:09.397Z,19.67
2017-10-23T11:08:37.069Z,18.27
2017-10-23T11:11:04.680Z,22.47
2017-10-23T11:13:32.343Z,22.03
2017-10-23T11:15:59.968Z,17.77
2017-10-23T11:18:28.524Z,26.40
2017-10-23T11:20:56.181Z,24.73
2017-10-23T11:23:23.792Z,20.27
2017-10-23T11:25:51.416Z,26.30
2017-10-23T11:28:19.083Z,18.07
2017-10-23T11:30:46.762Z,22.67
2017-10-23T11:33:14.375Z,21.40
2017-10-23T11:35:42.032Z,23.70
2017-10-23T11:38:09.700Z,28.87
2017-10-23T11:40:37.380Z,19.20
2017-10-23T11:43:05.043Z,30.57
2017-10-23T11:45:32.708Z,27.13
2017-10-23T11:48:00.323Z,22.20
2017-10-23T11:50:28.049Z,31.77
2017-10-23T11:52:55.666Z,23.17
2017-10-23T11:55:23.275Z,32.70
2017-10-23T11:57:50.941Z,26.90
2017-10-23T12:00:18.556Z,24.30
2017-10-23T12:02:46.173Z,36.13
2017-10-23T12:05:13.826Z,33.20
2017-10-23T12:07:41.432Z,27.67
2017-10-23T12:10:09.112Z,30.27
2017-10-23T12:12:36.788Z,41.23
2017-10-23T12:15:04.433Z,31.20
2017-10-23T12:17:32.060Z,28.20
2017-10-23T12:19:59.864Z,28.40
2017-10-23T12:22:27.540Z,29.70
2017-10-23T12:24:55.151Z,32.50
2017-10-23T12:27:22.898Z,26.20
2017-10-23T12:29:50.515Z,35.63
2017-10-23T12:32:18.131Z,25.00
2017-10-23T12:34:45.784Z,30.17
2017-10-23T12:37:13.396Z,30.00
2017-10-23T12:39:41.079Z,30.30
2017-10-23T12:42:08.751Z,36.40
2017-10-23T12:44:36.367Z,34.00
2017-10-23T12:47:03.980Z,28.13
2017-10-23T12:49:31.692Z,28.33
2017-10-23T12:51:58.579Z,33.47
2017-10-23T12:54:26.250Z,26.77
2017-10-23T12:56:53.924Z,31.63
2017-10-23T12:59:21.539Z,32.47
2017-10-23T13:01:49.157Z,26.90
2017-10-23T13:04:16.821Z,35.47
2017-10-23T13:06:44.479Z,31.00
2017-10-23T13:09:12.084Z,31.37
2017-10-23T13:11:39.757Z,32.23
2017-10-23T13:14:07.367Z,28.43
2017-10-23T13:16:35.035Z,28.33
2017-10-23T13:19:02.707Z,27.90
2017-10-23T13:21:30.324Z,34.10
2017-10-23T13:23:57.998Z,28.30
2017-10-23T13:26:25.759Z,31.73
2017-10-23T13:28:53.365Z,23.90
2017-10-23T13:31:21.052Z,32.60
2017-10-23T13:33:48.777Z,30.80
2017-10-23T13:36:16.394Z,33.40
2017-10-23T13:38:44.073Z,40.13
2017-10-23T13:41:11.802Z,36.33
2017-10-23T13:43:39.419Z,38.80
2017-10-23T13:46:07.031Z,39.50
2017-10-23T13:48:34.695Z,43.93
2017-10-23T13:51:02.313Z,42.50
2017-10-23T13:53:29.956Z,62.23
2017-10-23T13:55:57.684Z,53.90
2017-10-23T13:58:25.355Z,59.93
2017-10-23T14:00:53.053Z,50.20
2017-10-23T14:03:20.729Z,81.37
2017-10-23T14:05:48.398Z,77.90
2017-10-23T14:08:16.007Z,61.70
2017-10-23T14:10:43.683Z,81.77
2017-10-23T14:13:11.333Z,69.83
2017-10-23T14:15:38.947Z,89.73
2017-10-23T14:18:06.642Z,87.80
2017-10-23T14:20:34.340Z,71.80
2017-10-23T14:23:02.094Z,62.00
2017-10-23T14:25:29.859Z,51.27
2017-10-23T14:27:57.516Z,57.67
2017-10-23T14:30:25.304Z,47.27
2017-10-23T14:32:53.196Z,47.20
2017-10-23T14:35:20.875Z,51.93
2017-10-23T14:37:48.575Z,59.50
2017-10-23T14:40:16.303Z,51.63
2017-10-23T14:42:44.131Z,54.63
2017-10-23T14:45:11.851Z,57.93
2017-10-23T14:47:39.670Z,57.60
2017-10-23T14:50:07.365Z,69.73
2017-10-23T14:52:35.071Z,62.80
2017-10-23T14:55:02.828Z,55.37
2017-10-23T14:57:30.452Z,59.03
2017-10-23T14:59:58.112Z,59.17
2017-10-23T15:02:25.868Z,63.57
2017-10-23T15:04:53.486Z,58.60
2017-10-23T15:07:21.112Z,61.40
2017-10-23T15:09:48.774Z,60.67
2017-10-23T15:12:16.408Z,57.43
2017-10-23T15:14:44.043Z,57.93
2017-10-23T15:17:11.704Z,56.23
2017-10-23T15:19:39.378Z,52.47
2017-10-23T15:22:07.020Z,64.60
2017-10-23T15:24:34.682Z,56.27
2017-10-23T15:27:02.295Z,56.47
2017-10-23T15:29:29.900Z,50.60
2017-10-23T15:31:57.580Z,61.80
2017-10-23T15:34:25.450Z,65.50
2017-10-23T15:36:53.106Z,79.70
2017-10-23T15:39:20.824Z,73.60
2017-10-23T15:41:48.495Z,80.77
2017-10-23T15:44:16.233Z,71.23
2017-10-23T15:46:43.955Z,76.10
2017-10-23T15:49:11.595Z,72.27
2017-10-23T15:51:39.255Z,76.33
2017-10-23T15:54:07.155Z,71.87
2017-10-23T15:56:34.819Z,75.70
2017-10-23T15:59:02.428Z,68.70
2017-10-23T16:01:30.083Z,70.90
2017-10-23T16:03:58.647Z,84.47
2017-10-23T16:06:26.261Z,76.03
2017-10-23T16:08:53.932Z,69.63
2017-10-23T16:11:21.550Z,65.60
2017-10-23T16:13:49.217Z,62.73
2017-10-23T16:16:16.880Z,69.20
2017-10-23T16:18:44.554Z,78.47
2017-10-23T16:21:12.161Z,62.90
2017-10-23T16:23:39.931Z,71.47
2017-10-23T16:26:07.541Z,74.27
2017-10-23T16:28:35.224Z,72.10
2017-10-23T16:31:02.964Z,82.07
2017-10-23T16:33:30.620Z,66.40
2017-10-23T16:35:58.244Z,84.90
2017-10-23T16:38:25.907Z,86.40
2017-10-23T16:40:53.519Z,80.27
2017-10-23T16:43:21.136Z,95.10
2017-10-23T16:45:48.803Z,86.77
2017-10-23T16:48:16.422Z,77.50
2017-10-23T16:50:44.028Z,74.57
2017-10-23T16:53:11.804Z,68.13
2017-10-23T16:55:39.478Z,74.33
2017-10-23T16:58:07.099Z,69.00
2017-10-23T17:00:34.816Z,76.77
2017-10-23T17:03:02.483Z,72.73
2017-10-23T17:05:30.097Z,83.80
2017-10-23T17:07:57.760Z,94.30
2017-10-23T17:10:25.373Z,90.83
2017-10-23T17:12:53.069Z,91.33
2017-10-23T17:15:20.750Z,75.87
2017-10-23T17:17:48.360Z,81.10
2017-10-23T17:20:16.077Z,77.77
2017-10-23T17:22:43.768Z,78.10
2017-10-23T17:25:11.441Z,64.47
2017-10-23T17:27:39.052Z,67.53
2017-10-23T17:30:06.783Z,65.77
2017-10-23T17:32:34.399Z,79.43
2017-10-23T17:35:02.092Z,83.67
2017-10-23T17:37:29.818Z,75.90
2017-10-23T17:39:57.488Z,80.77
2017-10-23T17:42:25.140Z,90.73
2017-10-23T17:44:52.809Z,87.43
2017-10-23T17:47:20.422Z,84.17
2017-10-23T17:49:48.033Z,72.27
2017-10-23T17:52:15.704Z,72.80
2017-10-23T17:54:43.311Z,78.77
2017-10-23T17:57:10.919Z,69.23
2017-10-23T17:59:38.573Z,69.37
2017-10-23T18:02:06.260Z,74.27
2017-10-23T18:04:33.883Z,60.60
2017-10-23T18:07:01.554Z,58.23
2017-10-23T18:09:29.159Z,60.20
2017-10-23T18:11:56.767Z,52.13
2017-10-23T18:14:24.456Z,58.27
2017-10-23T18:16:52.125Z,54.80
2017-10-23T18:19:19.793Z,51.20
2017-10-23T18:21:47.519Z,56.00
2017-10-23T18:24:15.195Z,54.57
2017-10-23T18:26:42.802Z,48.00
2017-10-23T18:29:10.463Z,46.83
2017-10-23T18:31:38.067Z,52.43
2017-10-23T18:34:05.672Z,49.00
2017-10-23T18:36:33.335Z,62.63
2017-10-23T18:39:00.951Z,38.10
2017-10-23T18:41:28.631Z,30.23
2017-10-23T18:43:56.360Z,38.43
2017-10-23T18:46:24.032Z,31.43
2017-10-23T18:48:51.691Z,37.90
2017-10-23T18:51:19.360Z,37.10
2017-10-23T18:53:47.065Z,38.10
2017-10-23T18:56:14.738Z,32.03
2017-10-23T18:58:42.396Z,35.53
2017-10-23T19:01:10.104Z,38.03
2017-10-23T19:03:37.712Z,32.10
2017-10-23T19:06:05.383Z,32.70
2017-10-23T19:08:33.011Z,28.33
2017-10-23T19:11:00.628Z,32.50
2017-10-23T19:13:28.360Z,31.03
2017-10-23T19:15:55.974Z,30.10
2017-10-23T19:18:23.604Z,26.40
2017-10-23T19:20:51.259Z,23.70
2017-10-23T19:23:18.926Z,31.90
2017-10-23T19:25:46.536Z,33.83
2017-10-23T19:28:14.279Z,28.17
2017-10-23T19:30:41.981Z,22.37
2017-10-23T19:33:09.604Z,23.97
2017-10-23T19:35:37.285Z,25.77
2017-10-23T19:38:04.951Z,20.87
2017-10-23T19:40:32.572Z,29.50
2017-10-23T19:43:00.303Z,20.13
2017-10-23T19:45:27.939Z,25.57
2017-10-23T19:47:55.553Z,28.00
2017-10-23T19:50:23.216Z,22.93
2017-10-23T19:52:50.824Z,22.90
2017-10-23T19:55:18.443Z,23.10
2017-10-23T19:57:46.121Z,20.40
2017-10-23T20:00:13.749Z,20.20
2017-10-23T20:02:41.374Z,27.10
2017-10-23T20:05:09.078Z,31.10
2017-10-23T20:07:36.695Z,30.40
2017-10-23T20:10:04.388Z,30.00
2017-10-23T20:12:32.070Z,28.07
2017-10-23T20:14:59.715Z,28.93
2017-10-23T20:17:27.340Z,28.83
2017-10-23T20:19:55.184Z,28.53
2017-10-23T20:22:22.807Z,28.03
2017-10-23T20:24:50.427Z,30.87
2017-10-23T20:27:18.100Z,29.30
2017-10-23T20:29:45.712Z,26.97
2017-10-23T20:32:13.500Z,28.40
2017-10-23T20:34:41.220Z,24.67
2017-10-23T20:37:08.844Z,23.77
2017-10-23T20:39:36.501Z,26.20
2017-10-23T20:42:04.211Z,21.73
2017-10-23T20:44:31.827Z,19.73
2017-10-23T20:46:59.495Z,18.87
2017-10-23T20:49:27.168Z,15.93
2017-10-23T20:51:54.844Z,18.50
2017-10-23T20:54:22.455Z,19.73
2017-10-23T20:56:50.178Z,18.50
2017-10-23T20:59:17.791Z,24.10
2017-10-23T21:01:45.463Z,21.90
2017-10-23T21:04:13.112Z,18.43
2017-10-23T21:06:40.726Z,25.50
2017-10-23T21:09:08.343Z,24.50
2017-10-23T21:11:36.024Z,28.53
2017-10-23T21:14:03.639Z,26.17
2017-10-23T21:16:31.240Z,27.90
2017-10-23T21:18:58.895Z,25.63
2017-10-23T21:21:26.501Z,23.17
2017-10-23T21:23:54.118Z,24.57
2017-10-23T21:26:21.936Z,31.20
2017-10-23T21:28:49.539Z,25.13
2017-10-23T21:31:17.140Z,18.03
2017-10-23T21:33:44.799Z,26.57
2017-10-23T21:36:12.463Z,18.97
2017-10-23T21:38:40.080Z,15.33
2017-10-23T21:41:07.791Z,14.37
2017-10-23T21:43:35.461Z,17.80
2017-10-23T21:46:03.280Z,14.93
2017-10-23T21:48:30.944Z,14.73
2017-10-23T21:50:58.558Z,12.50
2017-10-23T21:53:26.221Z,13.40
2017-10-23T21:55:53.936Z,11.97
2017-10-23T21:58:21.535Z,11.97
2017-10-23T22:00:49.153Z,14.30
2017-10-23T22:03:16.804Z,17.93
2017-10-23T22:05:44.408Z,12.63
2017-10-23T22:08:12.015Z,10.60
2017-10-23T22:10:39.735Z,10.23
2017-10-23T22:13:07.339Z,11.40
2017-10-23T22:15:34.944Z,11.13
2017-10-23T22:18:02.653Z,9.83
2017-10-23T22:20:30.272Z,14.67
2017-10-23T22:22:57.875Z,7.80
2017-10-23T22:25:25.527Z,8.00
2017-10-23T22:27:53.151Z,11.40
2017-10-23T22:30:20.768Z,14.73
2017-10-23T22:32:48.436Z,22.60
2017-10-23T22:35:16.057Z,20.70
2017-10-23T22:37:43.672Z,25.97
2017-10-23T22:40:11.352Z,25.60
2017-10-23T22:42:39.022Z,31.50
2017-10-23T22:45:06.687Z,32.30
2017-10-23T22:47:34.344Z,32.90
2017-10-23T22:50:02.012Z,35.80
2017-10-23T22:52:29.621Z,30.90
2017-10-23T22:54:57.323Z,27.10
2017-10-23T22:57:24.987Z,16.53
2017-10-23T22:59:52.583Z,19.93
2017-10-23T23:02:20.296Z,17.43
2017-10-23T23:04:47.960Z,22.70
2017-10-23T23:07:15.574Z,23.10
2017-10-23T23:09:43.360Z,18.77
2017-10-23T23:12:11.028Z,15.67
2017-10-23T23:14:38.703Z,15.90
2017-10-23T23:17:06.434Z,14.80
2017-10-23T23:19:34.099Z,20.33
2017-10-23T23:22:01.715Z,20.20
2017-10-23T23:24:29.376Z,25.83
2017-10-23T23:26:56.986Z,26.37
2017-10-23T23:29:24.655Z,27.67
2017-10-23T23:31:52.321Z,28.70
2017-10-23T23:34:19.942Z,21.87
2017-10-23T23:36:47.547Z,24.30
2017-10-23T23:39:15.210Z,26.20
2017-10-23T23:41:42.873Z,25.30
2017-10-23T23:44:10.480Z,23.13
2017-10-23T23:46:38.154Z,24.10
2017-10-23T23:49:05.820Z,33.50
2017-10-23T23:51:33.426Z,24.57
2017-10-23T23:54:01.080Z,28.13
2017-10-23T23:56:28.696Z,21.67
2017-10-23T23:58:56.299Z,25.80
